createdAt,value
2023-03-08T00:00:23.312Z,100021.34
2023-03-08T00:02:53.906Z,100017.88
2023-03-08T00:05:21.614Z,100016.44
2023-03-08T00:07:49.346Z,100019.72
2023-03-08T00:10:17.121Z,100014.59
2023-03-08T00:12:44.874Z,100018.91
2023-03-08T00:15:13.020Z,100014.81
2023-03-08T00:17:41.111Z,100016.22
2023-03-08T00:20:12.470Z,100006.81
2023-03-08T00:22:41.403Z,100002.50
2023-03-08T00:25:10.929Z,100015.41
2023-03-08T00:27:39.224Z,100011.09
2023-03-08T00:30:08.251Z,100018.28
2023-03-08T00:32:36.080Z,100011.31
2023-03-08T00:35:03.916Z,100007.84
2023-03-08T00:37:33.358Z,100007.84
2023-03-08T00:40:01.155Z,100015.03
2023-03-08T00:42:29.008Z,100014.81
2023-03-08T00:44:56.752Z,100010.50
2023-03-08T00:47:24.484Z,100007.03
2023-03-08T00:49:52.213Z,100006.19
2023-03-08T00:52:20.013Z,100006.41
2023-03-08T00:54:49.116Z,100003.13
2023-03-08T00:57:17.230Z,100001.50
2023-03-08T00:59:44.921Z,99999.66
2023-03-08T01:02:12.662Z,99997.81
2023-03-08T01:04:40.361Z,99999.66
2023-03-08T01:07:08.177Z,99996.16
2023-03-08T01:09:35.915Z,99990.22
2023-03-08T01:12:05.583Z,99987.34
2023-03-08T01:14:33.328Z,99981.19
2023-03-08T01:17:01.038Z,99980.38
2023-03-08T01:19:28.813Z,99974.22
2023-03-08T01:21:56.478Z,99972.59
2023-03-08T01:24:24.180Z,99969.09
2023-03-08T01:26:53.794Z,99961.94
2023-03-08T01:29:22.886Z,99956.81
2023-03-08T01:31:50.539Z,99956.81
2023-03-08T01:34:18.234Z,99946.13
2023-03-08T01:36:46.198Z,99939.16
2023-03-08T01:39:14.094Z,99941.03
2023-03-08T01:41:41.808Z,99927.69
2023-03-08T01:44:16.890Z,99930.56
2023-03-08T01:46:46.216Z,99928.72
2023-03-08T01:49:16.777Z,99920.72
2023-03-08T01:51:48.188Z,99919.25
2023-03-08T01:54:18.805Z,99914.75
2023-03-08T01:56:50.493Z,99921.94
2023-03-08T01:59:19.507Z,99922.56
2023-03-08T02:01:48.740Z,99915.56
2023-03-08T02:04:16.550Z,99910.22
2023-03-08T02:06:45.422Z,99910.66
2023-03-08T02:09:13.699Z,99910.88
2023-03-08T02:11:42.955Z,99914.16
2023-03-08T02:14:10.823Z,99905.53
2023-03-08T02:16:39.078Z,99902.06
2023-03-08T02:19:15.815Z,99890.56
2023-03-08T02:21:43.617Z,99882.56
2023-03-08T02:24:22.651Z,99880.13
2023-03-08T02:26:52.071Z,99876.63
2023-03-08T02:29:20.042Z,99884.44
2023-03-08T02:31:47.761Z,99871.09
2023-03-08T02:34:15.536Z,99874.56
2023-03-08T02:36:43.247Z,99863.09
2023-03-08T02:39:10.977Z,99859.63
2023-03-08T02:41:40.041Z,99860.44
2023-03-08T02:44:07.797Z,99852.66
2023-03-08T02:46:35.926Z,99844.66
2023-03-08T02:49:03.615Z,99849.16
2023-03-08T02:51:31.461Z,99854.50
2023-03-08T02:53:59.232Z,99851.63
2023-03-08T02:56:26.949Z,99843.63
2023-03-08T02:58:56.242Z,99837.69
2023-03-08T03:01:24.443Z,99843.41
2023-03-08T03:03:55.401Z,99838.06
2023-03-08T03:06:23.931Z,99838.28
2023-03-08T03:08:51.829Z,99833.97
2023-03-08T03:11:22.120Z,99824.34
2023-03-08T03:13:56.764Z,99826.41
2023-03-08T03:16:25.541Z,99821.91
2023-03-08T03:18:54.543Z,99817.59
2023-03-08T03:21:22.907Z,99814.13
2023-03-08T03:23:51.141Z,99811.44
2023-03-08T03:26:21.699Z,99805.31
2023-03-08T03:28:49.777Z,99798.94
2023-03-08T03:31:20.401Z,99791.97
2023-03-08T03:33:49.101Z,99782.34
2023-03-08T03:36:19.690Z,99774.78
2023-03-08T03:38:48.239Z,99775.59
2023-03-08T03:41:18.554Z,99769.22
2023-03-08T03:43:46.808Z,99772.94
2023-03-08T03:46:16.688Z,99770.25
2023-03-08T03:48:46.487Z,99773.75
2023-03-08T03:51:16.542Z,99778.25
2023-03-08T03:53:44.496Z,99760.63
2023-03-08T03:56:15.149Z,99768.63
2023-03-08T03:58:43.229Z,99767.00
2023-03-08T04:01:13.090Z,99760.84
2023-03-08T04:03:40.832Z,99764.53
2023-03-08T04:06:13.426Z,99756.56
2023-03-08T04:08:42.613Z,99733.88
2023-03-08T04:11:10.748Z,99750.63
2023-03-08T04:13:39.335Z,99754.09
2023-03-08T04:16:11.835Z,99743.44
2023-03-08T04:18:39.647Z,99741.59
2023-03-08T04:21:07.786Z,99731.16
2023-03-08T04:23:37.221Z,99731.97
2023-03-08T04:26:05.938Z,99721.53
2023-03-08T04:28:34.143Z,99717.81
2023-03-08T04:31:02.333Z,99710.03
2023-03-08T04:33:30.096Z,99714.34
2023-03-08T04:35:57.931Z,99704.72
2023-03-08T04:38:25.628Z,99703.06
2023-03-08T04:41:05.482Z,99696.94
2023-03-08T04:43:34.572Z,99696.94
2023-03-08T04:46:02.988Z,99695.31
2023-03-08T04:48:30.708Z,99693.44
2023-03-08T04:51:00.650Z,99688.56
2023-03-08T04:53:29.861Z,99685.66
2023-03-08T04:56:00.509Z,99679.31
2023-03-08T04:58:28.374Z,99679.91
2023-03-08T05:00:57.154Z,99667.63
2023-03-08T05:03:25.018Z,99658.19
2023-03-08T05:05:54.447Z,99661.47
2023-03-08T05:08:23.405Z,99649.19
2023-03-08T05:10:54.848Z,99644.88
2023-03-08T05:13:23.902Z,99635.03
2023-03-08T05:15:51.598Z,99634.81
2023-03-08T05:18:19.332Z,99629.69
2023-03-08T05:20:54.908Z,99626.81
2023-03-08T05:23:22.860Z,99627.84
2023-03-08T05:25:53.517Z,99624.38
2023-03-08T05:28:23.393Z,99621.13
2023-03-08T05:30:51.347Z,99609.41
2023-03-08T05:33:19.817Z,99605.13
2023-03-08T05:35:55.360Z,99605.94
2023-03-08T05:38:23.409Z,99591.78
2023-03-08T05:40:51.635Z,99584.03
2023-03-08T05:43:20.314Z,99581.34
2023-03-08T05:45:58.415Z,99567.22
2023-03-08T05:48:26.617Z,99565.59
2023-03-08T05:50:54.725Z,99564.78
2023-03-08T05:53:23.504Z,99549.00
2023-03-08T05:55:51.268Z,99545.53
2023-03-08T05:58:19.020Z,99541.22
2023-03-08T06:00:46.695Z,99530.56
2023-03-08T06:03:15.891Z,99530.13
2023-03-08T06:05:43.618Z,99533.69
2023-03-08T06:08:11.331Z,99515.69
2023-03-08T06:10:39.064Z,99527.25
2023-03-08T06:13:06.802Z,99517.41
2023-03-08T06:15:34.540Z,99519.63
2023-03-08T06:18:03.429Z,99519.25
2023-03-08T06:20:32.883Z,99520.66
2023-03-08T06:23:00.711Z,99519.47
2023-03-08T06:25:28.485Z,99519.75
2023-03-08T06:27:56.460Z,99517.66
2023-03-08T06:30:24.213Z,99511.16
2023-03-08T06:32:51.928Z,99506.13
2023-03-08T06:35:19.745Z,99497.03
2023-03-08T06:37:48.889Z,99499.78
2023-03-08T06:40:16.987Z,99497.16
2023-03-08T06:42:44.723Z,99495.41
2023-03-08T06:45:12.878Z,99491.56
2023-03-08T06:47:40.680Z,99498.38
2023-03-08T06:50:09.308Z,99501.09
2023-03-08T06:52:37.795Z,99505.63
2023-03-08T06:55:08.119Z,99503.41
2023-03-08T06:57:35.817Z,99501.19
2023-03-08T07:00:04.339Z,99511.03
2023-03-08T07:02:32.034Z,99510.66
2023-03-08T07:04:59.733Z,99499.84
2023-03-08T07:07:27.538Z,99492.69
2023-03-08T07:09:55.397Z,99490.44
2023-03-08T07:12:24.475Z,99485.41
2023-03-08T07:14:53.360Z,99479.50
2023-03-08T07:17:21.727Z,99481.56
2023-03-08T07:19:49.482Z,99478.09
2023-03-08T07:22:17.238Z,99479.94
2023-03-08T07:24:49.672Z,99478.91
2023-03-08T07:27:17.638Z,99466.84
2023-03-08T07:29:46.738Z,99463.38
2023-03-08T07:32:14.692Z,99454.34
2023-03-08T07:34:42.559Z,99454.56
2023-03-08T07:37:12.923Z,99454.56
2023-03-08T07:39:40.783Z,99452.94
2023-03-08T07:42:08.682Z,99446.56
2023-03-08T07:44:37.092Z,99444.94
2023-03-08T07:47:07.436Z,99451.06
2023-03-08T07:49:35.205Z,99443.09
2023-03-08T07:52:03.358Z,99436.94
2023-03-08T07:54:31.088Z,99441.47
2023-03-08T07:56:58.885Z,99435.09
2023-03-08T07:59:26.671Z,99435.31
2023-03-08T08:01:54.399Z,99422.22
2023-03-08T08:04:23.900Z,99422.22
2023-03-08T08:06:51.787Z,99417.94
2023-03-08T08:09:19.500Z,99421.19
2023-03-08T08:11:47.211Z,99419.56
2023-03-08T08:14:14.958Z,99419.56
2023-03-08T08:16:42.720Z,99409.94
2023-03-08T08:19:12.352Z,99401.13
2023-03-08T08:21:42.282Z,99395.81
2023-03-08T08:24:10.182Z,99390.47
2023-03-08T08:26:37.931Z,99380.06
2023-03-08T08:29:05.849Z,99373.09
2023-03-08T08:31:33.721Z,99370.66
2023-03-08T08:34:02.277Z,99369.84
2023-03-08T08:36:30.060Z,99368.00
2023-03-08T08:38:59.107Z,99369.84
2023-03-08T08:41:28.003Z,99365.56
2023-03-08T08:43:58.885Z,99359.41
2023-03-08T08:46:27.804Z,99361.25
2023-03-08T08:48:55.722Z,99364.75
2023-03-08T08:51:23.835Z,99366.84
2023-03-08T08:53:52.621Z,99366.03
2023-03-08T08:56:28.418Z,99366.03
2023-03-08T08:58:57.127Z,99368.69
2023-03-08T09:01:27.054Z,99377.50
2023-03-08T09:03:54.897Z,99381.91
2023-03-08T09:06:24.146Z,99384.03
2023-03-08T09:08:52.762Z,99393.28
2023-03-08T09:11:22.381Z,99395.53
2023-03-08T09:13:50.159Z,99385.06
2023-03-08T09:16:20.656Z,99373.56
2023-03-08T09:18:48.763Z,99365.47
2023-03-08T09:21:17.254Z,99350.88
2023-03-08T09:23:45.727Z,99339.75
2023-03-08T09:26:14.044Z,99331.84
2023-03-08T09:28:43.106Z,99322.09
2023-03-08T09:31:14.857Z,99317.53
2023-03-08T09:33:44.272Z,99312.63
2023-03-08T09:36:12.492Z,99305.75
2023-03-08T09:38:40.230Z,99309.34
2023-03-08T09:41:32.719Z,99308.63
2023-03-08T09:44:18.552Z,99308.38
2023-03-08T09:46:50.221Z,99299.22
2023-03-08T09:49:23.862Z,99296.31
2023-03-08T09:51:57.753Z,99279.28
2023-03-08T09:54:26.646Z,99291.53
2023-03-08T09:56:56.557Z,99283.81
2023-03-08T09:59:32.722Z,99284.75
2023-03-08T10:02:12.144Z,99287.53
2023-03-08T10:05:11.787Z,99286.97
2023-03-08T10:07:49.471Z,99287.41
2023-03-08T10:10:29.571Z,99279.53
2023-03-08T10:13:08.465Z,99278.78
2023-03-08T10:15:43.066Z,99273.09
2023-03-08T10:18:18.031Z,99297.78
2023-03-08T10:20:46.790Z,99292.09
2023-03-08T10:23:16.445Z,99289.28
2023-03-08T10:25:45.480Z,99289.75
2023-03-08T10:28:15.812Z,99281.41
2023-03-08T10:30:52.014Z,99279.78
2023-03-08T10:33:24.118Z,99274.91
2023-03-08T10:35:57.679Z,99268.97
2023-03-08T10:38:28.609Z,99267.34
2023-03-08T10:41:04.144Z,99264.69
2023-03-08T10:43:34.186Z,99273.38
2023-03-08T10:46:05.757Z,99251.47
2023-03-08T10:48:33.835Z,99243.97
2023-03-08T10:51:03.919Z,99246.78
2023-03-08T10:53:32.592Z,99248.56
2023-03-08T10:56:02.751Z,99240.22
2023-03-08T10:58:35.103Z,99235.69
2023-03-08T11:01:07.297Z,99246.22
2023-03-08T11:03:35.604Z,99271.63
2023-03-08T11:06:05.079Z,99283.44
2023-03-08T11:08:35.356Z,99287.19
2023-03-08T11:11:05.508Z,99274.94
2023-03-08T11:13:35.503Z,99269.69
2023-03-08T11:16:36.666Z,99267.59
2023-03-08T11:19:12.402Z,99260.16
2023-03-08T11:21:52.030Z,99258.97
2023-03-08T11:24:31.711Z,99253.94
2023-03-08T11:27:16.683Z,99228.28
2023-03-08T11:30:01.124Z,99232.81
2023-03-08T11:32:56.615Z,99246.03
2023-03-08T11:35:32.863Z,99242.53
2023-03-08T11:38:07.490Z,99226.16
2023-03-08T11:40:48.216Z,99239.78
2023-03-08T11:43:32.086Z,99231.28
2023-03-08T11:46:07.837Z,99224.63
2023-03-08T11:48:53.868Z,99220.44
2023-03-08T11:51:28.596Z,99211.38
2023-03-08T11:54:07.505Z,99215.41
2023-03-08T11:56:48.090Z,99219.13
2023-03-08T11:59:22.479Z,99210.06
2023-03-08T12:01:54.858Z,99198.25
2023-03-08T12:04:32.156Z,99198.06
2023-03-08T12:07:03.407Z,99208.44
2023-03-08T12:09:36.823Z,99210.53
2023-03-08T12:12:12.596Z,99209.78
2023-03-08T12:14:48.873Z,99200.09
2023-03-08T12:17:21.287Z,99215.53
2023-03-08T12:19:51.695Z,99214.41
2023-03-08T12:22:39.888Z,99217.81
2023-03-08T12:25:14.248Z,99216.78
2023-03-08T12:27:48.338Z,99218.03
2023-03-08T12:30:27.716Z,99216.50
2023-03-08T12:32:56.463Z,99214.72
2023-03-08T12:35:34.126Z,99226.16
2023-03-08T12:38:04.253Z,99227.47
2023-03-08T12:40:39.474Z,99212.31
2023-03-08T12:43:11.406Z,99204.22
2023-03-08T12:45:40.790Z,99199.72
2023-03-08T12:48:27.576Z,99194.03
2023-03-08T12:51:00.902Z,99202.84
2023-03-08T12:53:36.153Z,99176.50
2023-03-08T12:56:09.271Z,99178.00
2023-03-08T12:58:49.564Z,99168.78
2023-03-08T13:01:30.302Z,99158.63
2023-03-08T13:03:58.472Z,99149.94
2023-03-08T13:06:58.740Z,99147.06
2023-03-08T13:09:29.822Z,99150.09
2023-03-08T13:12:12.973Z,99157.41
2023-03-08T13:14:43.339Z,99158.94
2023-03-08T13:17:34.030Z,99176.56
2023-03-08T13:20:14.024Z,99174.78
2023-03-08T13:22:51.638Z,99169.88
2023-03-08T13:25:31.355Z,99169.47
2023-03-08T13:28:04.915Z,99174.03
2023-03-08T13:30:35.900Z,99178.34
2023-03-08T13:33:09.106Z,99166.88
2023-03-08T13:35:36.911Z,99166.31
2023-03-08T13:38:06.843Z,99155.34
2023-03-08T13:40:35.700Z,99158.03
2023-03-08T13:43:08.593Z,99161.22
2023-03-08T13:45:36.569Z,99167.06
2023-03-08T13:48:08.818Z,99175.09
2023-03-08T13:50:39.615Z,99176.28
2023-03-08T13:53:15.799Z,99168.88
2023-03-08T13:55:46.459Z,99155.34
2023-03-08T13:58:26.497Z,99159.84
2023-03-08T14:01:02.852Z,99158.13
2023-03-08T14:03:32.777Z,99156.97
2023-03-08T14:06:00.904Z,99145.84
2023-03-08T14:08:30.416Z,99155.94
2023-03-08T14:11:01.526Z,99153.34
2023-03-08T14:13:32.323Z,99152.72
2023-03-08T14:16:02.876Z,99144.28
2023-03-08T14:18:34.681Z,99149.44
2023-03-08T14:21:06.570Z,99138.53
2023-03-08T14:23:41.893Z,99144.38
2023-03-08T14:26:28.655Z,99148.81
2023-03-08T14:29:13.890Z,99152.03
2023-03-08T14:31:54.389Z,99148.53
2023-03-08T14:34:24.287Z,99148.25
2023-03-08T14:36:57.695Z,99153.88
2023-03-08T14:39:29.423Z,99149.59
2023-03-08T14:41:57.785Z,99151.59
2023-03-08T14:44:28.998Z,99152.53
2023-03-08T14:46:59.572Z,99150.81
2023-03-08T14:49:29.401Z,99147.00
2023-03-08T14:51:57.228Z,99151.16
2023-03-08T14:54:33.376Z,99151.63
2023-03-08T14:57:14.905Z,99155.59
2023-03-08T14:59:43.295Z,99163.25
2023-03-08T15:02:13.609Z,99167.88
2023-03-08T15:04:41.623Z,99155.44
2023-03-08T15:07:17.509Z,99151.00
2023-03-08T15:09:47.357Z,99145.47
2023-03-08T15:12:15.141Z,99152.72
2023-03-08T15:14:42.970Z,99149.13
2023-03-08T15:17:10.768Z,99141.13
2023-03-08T15:19:38.563Z,99135.47
2023-03-08T15:22:07.371Z,99129.72
2023-03-08T15:24:35.264Z,99133.38
2023-03-08T15:27:04.558Z,99135.72
2023-03-08T15:29:36.860Z,99132.81
2023-03-08T15:32:04.584Z,99134.88
2023-03-08T15:34:32.520Z,99143.69
2023-03-08T15:37:00.213Z,99144.47
2023-03-08T15:39:28.058Z,99150.09
2023-03-08T15:41:55.780Z,99140.03
2023-03-08T15:44:24.901Z,99136.69
2023-03-08T15:46:53.059Z,99128.03
2023-03-08T15:49:20.887Z,99123.41
2023-03-08T15:51:48.581Z,99113.66
2023-03-08T15:54:16.415Z,99130.97
2023-03-08T15:56:44.172Z,99122.03
2023-03-08T15:59:12.481Z,99126.22
2023-03-08T16:01:41.734Z,99128.31
2023-03-08T16:04:09.477Z,99122.41
2023-03-08T16:06:37.168Z,99123.69
2023-03-08T16:09:05.037Z,99127.16
2023-03-08T16:11:33.160Z,99135.16
2023-03-08T16:14:00.968Z,99142.34
2023-03-08T16:16:42.625Z,99142.81
2023-03-08T16:19:14.033Z,99138.53
2023-03-08T16:21:41.722Z,99149.22
2023-03-08T16:24:09.575Z,99134.94
2023-03-08T16:26:37.253Z,99144.09
2023-03-08T16:29:05.082Z,99142.47
2023-03-08T16:31:33.947Z,99135.75
2023-03-08T16:34:03.239Z,99147.00
2023-03-08T16:36:32.400Z,99134.72
2023-03-08T16:39:00.301Z,99140.06
2023-03-08T16:41:29.998Z,99133.09
2023-03-08T16:43:58.102Z,99134.94
2023-03-08T16:46:25.998Z,99131.47
2023-03-08T16:48:55.102Z,99129.84
2023-03-08T16:51:25.064Z,99130.91
2023-03-08T16:53:54.680Z,99122.31
2023-03-08T16:56:24.228Z,99122.56
2023-03-08T16:58:52.643Z,99125.22
2023-03-08T17:01:21.118Z,99126.25
2023-03-08T17:03:48.999Z,99132.41
2023-03-08T17:06:18.984Z,99132.66
2023-03-08T17:08:46.914Z,99119.41
2023-03-08T17:11:20.059Z,99131.69
2023-03-08T17:13:51.028Z,99127.97
2023-03-08T17:16:19.685Z,99133.53
2023-03-08T17:18:47.583Z,99131.59
2023-03-08T17:21:15.371Z,99138.53
2023-03-08T17:23:43.758Z,99141.19
2023-03-08T17:26:13.284Z,99127.88
2023-03-08T17:28:42.685Z,99129.38
2023-03-08T17:31:11.610Z,99131.47
2023-03-08T17:33:39.873Z,99131.72
2023-03-08T17:36:08.538Z,99113.16
2023-03-08T17:38:36.429Z,99119.41
2023-03-08T17:41:06.125Z,99127.41
2023-03-08T17:43:34.101Z,99130.78
2023-03-08T17:46:05.235Z,99124.94
2023-03-08T17:48:34.444Z,99120.72
2023-03-08T17:51:03.412Z,99120.78
2023-03-08T17:53:31.478Z,99124.09
2023-03-08T17:56:00.225Z,99115.53
2023-03-08T17:58:28.352Z,99108.81
2023-03-08T18:00:56.351Z,99104.22
2023-03-08T18:03:25.710Z,99113.53
2023-03-08T18:05:54.181Z,99109.16
2023-03-08T18:08:21.930Z,99090.69
2023-03-08T18:10:49.637Z,99100.72
2023-03-08T18:13:17.372Z,99102.03
2023-03-08T18:15:45.108Z,99104.03
2023-03-08T18:18:12.840Z,99098.22
2023-03-08T18:20:41.951Z,99103.06
2023-03-08T18:23:09.753Z,99101.16
2023-03-08T18:25:39.214Z,99095.28
2023-03-08T18:28:13.405Z,99096.25
2023-03-08T18:30:41.066Z,99072.94
2023-03-08T18:33:08.789Z,99076.66
2023-03-08T18:35:36.578Z,99080.03
2023-03-08T18:38:05.732Z,99067.38
2023-03-08T18:40:33.485Z,99060.22
2023-03-08T18:43:01.173Z,99060.50
2023-03-08T18:45:28.875Z,99070.72
2023-03-08T18:47:56.654Z,99078.47
2023-03-08T18:50:25.156Z,99077.16
2023-03-08T18:52:52.911Z,99072.78
2023-03-08T18:55:22.096Z,99066.63
2023-03-08T18:57:49.988Z,99070.50
2023-03-08T19:00:18.884Z,99065.47
2023-03-08T19:02:46.626Z,99069.94
2023-03-08T19:05:14.404Z,99074.50
2023-03-08T19:07:42.162Z,99086.47
2023-03-08T19:10:14.766Z,99091.25
2023-03-08T19:12:44.637Z,99089.97
2023-03-08T19:15:12.749Z,99073.13
2023-03-08T19:17:40.490Z,99076.75
2023-03-08T19:20:09.715Z,99071.00
2023-03-08T19:22:39.619Z,99078.31
2023-03-08T19:25:08.203Z,99086.25
2023-03-08T19:27:35.958Z,99086.38
2023-03-08T19:30:05.503Z,99091.84
2023-03-08T19:32:33.271Z,99094.44
2023-03-08T19:35:01.780Z,99102.31
2023-03-08T19:37:29.570Z,99095.59
2023-03-08T19:39:57.324Z,99097.13
2023-03-08T19:42:25.150Z,99088.53
2023-03-08T19:44:52.891Z,99082.41
2023-03-08T19:47:21.935Z,99075.09
2023-03-08T19:49:50.010Z,99069.19
2023-03-08T19:52:17.829Z,99069.69
2023-03-08T19:54:46.228Z,99058.44
2023-03-08T19:57:14.028Z,99058.66
2023-03-08T19:59:41.871Z,99066.31
2023-03-08T20:02:12.576Z,99065.75
2023-03-08T20:04:41.676Z,99054.50
2023-03-08T20:07:09.722Z,99055.78
2023-03-08T20:09:37.455Z,99049.66
2023-03-08T20:12:05.181Z,99050.91
2023-03-08T20:14:32.904Z,99052.75
2023-03-08T20:17:01.814Z,99051.94
2023-03-08T20:19:31.705Z,99046.03
2023-03-08T20:22:01.099Z,99043.13
2023-03-08T20:24:28.901Z,99037.69
2023-03-08T20:26:56.659Z,99036.66
2023-03-08T20:29:24.415Z,99040.94
2023-03-08T20:31:52.191Z,99048.94
2023-03-08T20:34:20.109Z,99050.22
2023-03-08T20:36:47.834Z,99039.56
2023-03-08T20:39:18.275Z,99054.28
2023-03-08T20:41:45.999Z,99048.13
2023-03-08T20:44:13.771Z,99052.06
2023-03-08T20:46:41.493Z,99057.41
2023-03-08T20:49:11.169Z,99053.13
2023-03-08T20:51:38.921Z,99058.69
2023-03-08T20:54:06.701Z,99050.94
2023-03-08T20:56:35.818Z,99050.13
2023-03-08T20:59:03.586Z,99047.44
2023-03-08T21:01:33.042Z,99051.72
2023-03-08T21:04:01.140Z,99048.03
2023-03-08T21:06:31.130Z,99037.59
2023-03-08T21:08:59.825Z,99034.34
2023-03-08T21:11:28.268Z,99022.06
2023-03-08T21:13:57.564Z,99018.38
2023-03-08T21:16:27.664Z,99010.84
2023-03-08T21:18:56.912Z,99012.69
2023-03-08T21:21:27.997Z,99018.84
2023-03-08T21:23:56.415Z,99004.94
2023-03-08T21:26:25.705Z,99005.16
2023-03-08T21:28:53.977Z,98992.88
2023-03-08T21:31:23.500Z,98987.78
2023-03-08T21:33:53.518Z,98985.38
2023-03-08T21:36:21.740Z,98990.94
2023-03-08T21:38:52.270Z,98993.59
2023-03-08T21:41:21.061Z,98995.44
2023-03-08T21:43:48.832Z,98993.03
2023-03-08T21:46:16.990Z,98988.72
2023-03-08T21:48:46.194Z,98989.53
2023-03-08T21:51:14.246Z,98982.34
2023-03-08T21:53:42.727Z,98983.41
2023-03-08T21:56:11.317Z,98990.34
2023-03-08T21:58:39.355Z,98993.03
2023-03-08T22:01:08.316Z,98997.53
2023-03-08T22:03:36.127Z,99011.91
2023-03-08T22:06:05.503Z,99002.06
2023-03-08T22:08:33.225Z,99006.56
2023-03-08T22:11:00.903Z,98998.81
2023-03-08T22:13:28.612Z,98984.69
2023-03-08T22:15:56.725Z,98974.84
2023-03-08T22:18:25.814Z,98969.97
2023-03-08T22:20:54.788Z,98975.06
2023-03-08T22:23:23.930Z,98975.31
2023-03-08T22:25:51.670Z,98960.69
2023-03-08T22:28:19.385Z,98946.00
2023-03-08T22:30:47.147Z,98947.03
2023-03-08T22:33:15.008Z,98942.53
2023-03-08T22:35:45.771Z,98940.66
2023-03-08T22:38:13.483Z,98961.16
2023-03-08T22:40:43.739Z,98966.75
2023-03-08T22:43:12.148Z,98985.38
2023-03-08T22:45:39.919Z,98992.56
2023-03-08T22:48:07.902Z,98986.44
2023-03-08T22:50:35.626Z,98964.31
2023-03-08T22:53:03.372Z,98945.66
2023-03-08T22:55:31.090Z,98976.81
2023-03-08T22:58:00.489Z,98985.28
2023-03-08T23:00:28.234Z,98980.19
2023-03-08T23:02:57.593Z,98973.22
2023-03-08T23:05:25.620Z,98988.19
2023-03-08T23:07:53.618Z,98986.78
2023-03-08T23:10:21.472Z,98981.47
2023-03-08T23:12:49.228Z,98984.94
2023-03-08T23:15:18.604Z,98975.09
2023-03-08T23:17:46.380Z,98970.00
2023-03-08T23:20:14.553Z,98967.81
2023-03-08T23:22:44.882Z,98972.31
2023-03-08T23:25:12.844Z,98976.59
2023-03-08T23:27:40.966Z,98970.69
2023-03-08T23:30:14.424Z,98968.84
2023-03-08T23:32:43.630Z,98970.69
2023-03-08T23:35:12.092Z,98965.38
2023-03-08T23:37:40.623Z,98955.53
2023-03-08T23:40:11.874Z,98964.00
2023-03-08T23:42:39.590Z,98965.25
2023-03-08T23:45:09.144Z,98967.94
2023-03-08T23:47:37.410Z,98971.63
2023-03-08T23:50:07.660Z,98976.38
2023-03-08T23:52:35.409Z,98981.38
2023-03-08T23:55:03.067Z,98987.72
2023-03-08T23:57:30.928Z,98990.41
2023-03-08T23:59:59.246Z,98983.59
